createdAt,value
2018-01-10T00:03:44.526Z,0
2018-01-10T00:08:44.444Z,0
2018-01-10T00:13:44.396Z,0
2018-01-10T00:18:44.314Z,0
2018-01-10T00:23:44.318Z,0
2018-01-10T00:28:44.157Z,0
2018-01-10T00:33:44.070Z,0
2018-01-10T00:38:44.014Z,0
2018-01-10T00:43:43.945Z,0
2018-01-10T00:48:43.880Z,0
2018-01-10T00:53:43.902Z,0
2018-01-10T00:58:43.712Z,0
2018-01-10T01:03:43.628Z,0
2018-01-10T01:08:43.586Z,0
2018-01-10T01:13:43.243Z,0
2018-01-10T01:18:43.428Z,0
2018-01-10T01:23:43.340Z,0
2018-01-10T01:28:43.255Z,0
2018-01-10T01:33:43.215Z,0
2018-01-10T01:38:43.147Z,0
2018-01-10T01:43:43.036Z,0
2018-01-10T01:48:42.717Z,0
2018-01-10T01:53:42.867Z,0
2018-01-10T01:58:42.801Z,0
2018-01-10T02:03:42.725Z,0
2018-01-10T02:08:42.657Z,0
2018-01-10T02:13:42.591Z,0
2018-01-10T02:18:42.491Z,0
2018-01-10T02:23:42.445Z,0
2018-01-10T02:28:42.393Z,0
2018-01-10T02:33:42.311Z,0
2018-01-10T02:38:42.185Z,0
2018-01-10T02:43:42.124Z,0
2018-01-10T02:48:42.125Z,0
2018-01-10T02:53:41.969Z,0
2018-01-10T02:58:41.894Z,0
2018-01-10T03:03:41.871Z,0
2018-01-10T03:08:41.737Z,0
2018-01-10T03:13:41.675Z,0
2018-01-10T03:18:41.698Z,0
2018-01-10T03:23:41.511Z,0
2018-01-10T03:28:41.442Z,0
2018-01-10T03:33:41.430Z,0
2018-01-10T03:38:41.295Z,0
2018-01-10T03:43:41.249Z,0
2018-01-10T03:48:41.220Z,0
2018-01-10T03:53:41.060Z,0
2018-01-10T03:58:41.017Z,0
2018-01-10T04:03:40.915Z,0
2018-01-10T04:08:40.866Z,0
2018-01-10T04:13:40.561Z,0
2018-01-10T04:18:40.690Z,0
2018-01-10T04:23:40.684Z,0
2018-01-10T04:28:40.524Z,0
2018-01-10T04:33:40.208Z,0
2018-01-10T04:38:40.388Z,0
2018-01-10T04:43:40.298Z,0
2018-01-10T04:48:40.261Z,0
2018-01-10T04:53:40.159Z,0
2018-01-10T04:58:40.054Z,0
2018-01-10T05:03:39.980Z,0
2018-01-10T05:08:39.925Z,0
2018-01-10T05:13:39.885Z,0
2018-01-10T05:18:39.815Z,0
2018-01-10T05:23:39.453Z,0
2018-01-10T05:28:39.572Z,0
2018-01-10T05:33:39.505Z,0
2018-01-10T05:38:39.413Z,0
2018-01-10T05:43:39.341Z,0
2018-01-10T05:48:39.072Z,0
2018-01-10T05:53:39.161Z,0
2018-01-10T05:58:39.128Z,0
2018-01-10T06:03:38.760Z,0
2018-01-10T06:08:39.046Z,0
2018-01-10T06:13:38.610Z,0
2018-01-10T06:18:38.794Z,0
2018-01-10T06:23:38.677Z,0
2018-01-10T06:28:38.603Z,0
2018-01-10T06:33:38.544Z,0
2018-01-10T06:38:38.451Z,0
2018-01-10T06:43:38.390Z,0
2018-01-10T06:48:38.332Z,0
2018-01-10T06:53:38.205Z,0
2018-01-10T06:58:37.894Z,0
2018-01-10T07:03:38.104Z,0
2018-01-10T07:08:38.027Z,0
2018-01-10T07:13:37.891Z,0
2018-01-10T07:18:37.828Z,0
2018-01-10T07:23:37.770Z,0
2018-01-10T07:28:37.698Z,0
2018-01-10T07:33:37.677Z,0
2018-01-10T07:38:37.614Z,0
2018-01-10T07:43:37.460Z,0
2018-01-10T07:48:37.376Z,0
2018-01-10T07:53:37.300Z,0
2018-01-10T07:58:37.246Z,0
2018-01-10T08:03:37.160Z,0
2018-01-10T08:08:37.147Z,4
2018-01-10T08:13:37.012Z,4
2018-01-10T08:18:36.950Z,4
2018-01-10T08:23:36.866Z,4
2018-01-10T08:28:36.778Z,4
2018-01-10T08:33:36.715Z,4
2018-01-10T08:38:36.650Z,8
2018-01-10T08:43:36.641Z,8
2018-01-10T08:48:36.512Z,8
2018-01-10T08:53:36.414Z,8
2018-01-10T08:58:36.332Z,8
2018-01-10T09:03:36.359Z,4
2018-01-10T09:08:36.204Z,8
2018-01-10T09:13:36.121Z,8
2018-01-10T09:18:36.056Z,8
2018-01-10T09:23:35.450Z,8
2018-01-10T09:28:35.888Z,12
2018-01-10T09:33:35.860Z,8
2018-01-10T09:38:36.038Z,12
2018-01-10T09:43:35.652Z,12
2018-01-10T09:48:35.582Z,16
2018-01-10T09:53:35.508Z,12
2018-01-10T09:58:35.442Z,16
2018-01-10T10:03:35.116Z,20
2018-01-10T10:08:35.353Z,20
2018-01-10T10:13:35.238Z,20
2018-01-10T10:18:35.147Z,16
2018-01-10T10:23:35.085Z,24
2018-01-10T10:28:34.991Z,32
2018-01-10T10:33:34.941Z,36
2018-01-10T10:38:34.839Z,32
2018-01-10T10:43:34.857Z,28
2018-01-10T10:48:34.716Z,24
2018-01-10T10:53:34.633Z,32
2018-01-10T10:58:34.556Z,40
2018-01-10T11:03:34.501Z,36
2018-01-10T11:08:34.423Z,32
2018-01-10T11:13:34.347Z,32
2018-01-10T11:18:34.287Z,36
2018-01-10T11:23:34.183Z,28
2018-01-10T11:28:34.177Z,36
2018-01-10T11:33:34.052Z,36
2018-01-10T11:38:34.077Z,32
2018-01-10T11:43:33.919Z,24
2018-01-10T11:48:33.978Z,40
2018-01-10T11:53:33.833Z,32
2018-01-10T11:58:33.700Z,36
2018-01-10T12:03:33.664Z,24
2018-01-10T12:08:33.568Z,16
2018-01-10T12:13:33.567Z,16
2018-01-10T12:18:33.705Z,20
2018-01-10T12:23:33.412Z,16
2018-01-10T12:28:33.250Z,24
2018-01-10T12:33:33.229Z,20
2018-01-10T12:38:33.112Z,16
2018-01-10T12:43:33.036Z,16
2018-01-10T12:48:32.713Z,16
2018-01-10T12:53:32.907Z,16
2018-01-10T12:58:32.829Z,20
2018-01-10T13:03:32.739Z,24
2018-01-10T13:08:32.744Z,24
2018-01-10T13:13:32.725Z,20
2018-01-10T13:18:32.259Z,28
2018-01-10T13:23:32.594Z,32
2018-01-10T13:28:32.455Z,28
2018-01-10T13:33:32.303Z,32
2018-01-10T13:38:31.977Z,32
2018-01-10T13:43:32.157Z,32
2018-01-10T13:48:32.094Z,28
2018-01-10T13:53:32.086Z,24
2018-01-10T13:58:31.934Z,24
2018-01-10T14:03:31.898Z,20
2018-01-10T14:08:31.815Z,16
2018-01-10T14:13:31.487Z,16
2018-01-10T14:18:31.708Z,8
2018-01-10T14:23:31.596Z,16
2018-01-10T14:28:31.545Z,12
2018-01-10T14:33:31.449Z,8
2018-01-10T14:38:31.390Z,12
2018-01-10T14:43:31.329Z,8
2018-01-10T14:48:31.241Z,8
2018-01-10T14:53:31.175Z,8
2018-01-10T14:58:31.161Z,4
2018-01-10T15:03:31.042Z,4
2018-01-10T15:08:30.803Z,4
2018-01-10T15:13:30.932Z,4
2018-01-10T15:18:30.926Z,4
2018-01-10T15:23:30.781Z,4
2018-01-10T15:28:30.457Z,4
2018-01-10T15:33:30.790Z,4
2018-01-10T15:38:30.569Z,0
2018-01-10T15:43:30.497Z,0
2018-01-10T15:48:30.427Z,4
2018-01-10T15:53:30.478Z,4
2018-01-10T15:58:30.291Z,4
2018-01-10T16:03:29.984Z,4
2018-01-10T16:08:30.205Z,4
2018-01-10T16:13:30.138Z,4
2018-01-10T16:18:29.524Z,4
2018-01-10T16:23:29.988Z,4
2018-01-10T16:28:29.902Z,4
2018-01-10T16:33:29.843Z,4
2018-01-10T16:38:29.516Z,4
2018-01-10T16:43:29.714Z,4
2018-01-10T16:48:29.638Z,4
2018-01-10T16:53:29.554Z,4
2018-01-10T16:58:29.490Z,4
2018-01-10T17:03:29.421Z,4
2018-01-10T17:08:29.348Z,4
2018-01-10T17:13:29.286Z,4
2018-01-10T17:18:29.236Z,4
2018-01-10T17:23:28.884Z,0
2018-01-10T17:28:29.076Z,0
2018-01-10T17:33:28.760Z,0
2018-01-10T17:38:28.973Z,0
2018-01-10T17:43:28.887Z,0
2018-01-10T17:48:28.907Z,0
2018-01-10T17:53:28.824Z,0
2018-01-10T17:58:28.711Z,0
2018-01-10T18:03:28.605Z,0
2018-01-10T18:08:28.603Z,0
2018-01-10T18:13:28.489Z,0
2018-01-10T18:18:28.504Z,0
2018-01-10T18:23:28.483Z,0
2018-01-10T18:28:28.291Z,0
2018-01-10T18:33:28.197Z,0
2018-01-10T18:38:28.212Z,0
2018-01-10T18:43:28.094Z,0
2018-01-10T18:48:28.043Z,0
2018-01-10T18:53:28.064Z,0
2018-01-10T18:58:27.897Z,0
2018-01-10T19:03:27.805Z,0
2018-01-10T19:08:27.749Z,0
2018-01-10T19:13:27.695Z,0
2018-01-10T19:18:27.616Z,0
2018-01-10T19:23:27.577Z,0
2018-01-10T19:28:27.487Z,0
2018-01-10T19:33:27.421Z,0
2018-01-10T19:38:27.369Z,0
2018-01-10T19:43:27.043Z,0
2018-01-10T19:48:27.231Z,0
2018-01-10T19:53:26.901Z,0
2018-01-10T19:58:27.123Z,0
2018-01-10T20:03:27.051Z,0
2018-01-10T20:08:27.000Z,0
2018-01-10T20:13:26.992Z,0
2018-01-10T20:18:26.848Z,0
2018-01-10T20:23:26.794Z,0
2018-01-10T20:28:26.726Z,0
2018-01-10T20:33:26.673Z,0
2018-01-10T20:38:26.688Z,0
2018-01-10T20:43:26.651Z,0
2018-01-10T20:48:26.476Z,0
2018-01-10T20:53:26.404Z,0
2018-01-10T20:58:26.372Z,0
2018-01-10T21:03:26.307Z,0
2018-01-10T21:08:26.315Z,0
2018-01-10T21:13:26.255Z,0
2018-01-10T21:18:26.088Z,0
2018-01-10T21:23:26.020Z,0
2018-01-10T21:28:25.992Z,0
2018-01-10T21:33:25.919Z,0
2018-01-10T21:38:25.836Z,0
2018-01-10T21:43:25.808Z,0
2018-01-10T21:48:25.707Z,0
2018-01-10T21:53:25.644Z,0
2018-01-10T21:58:25.344Z,0
2018-01-10T22:03:25.489Z,0
2018-01-10T22:08:25.449Z,0
2018-01-10T22:13:25.368Z,0
2018-01-10T22:18:25.332Z,0
2018-01-10T22:23:25.293Z,0
2018-01-10T22:28:25.288Z,0
2018-01-10T22:33:25.137Z,0
2018-01-10T22:38:27.567Z,0
2018-01-10T22:43:24.988Z,0
2018-01-10T22:48:25.028Z,0
2018-01-10T22:53:24.852Z,0
2018-01-10T22:58:24.768Z,0
2018-01-10T23:03:24.731Z,0
2018-01-10T23:08:24.622Z,0
2018-01-10T23:13:24.561Z,0
2018-01-10T23:18:24.507Z,0
2018-01-10T23:23:24.546Z,0
2018-01-10T23:28:24.383Z,0
2018-01-10T23:33:24.289Z,0
2018-01-10T23:38:24.266Z,0
2018-01-10T23:43:24.132Z,0
2018-01-10T23:48:24.075Z,0
2018-01-10T23:53:23.987Z,0
2018-01-10T23:58:23.920Z,0
